createdAt,value
2018-05-15T00:00:32.466Z,4.50
2018-05-15T00:02:58.869Z,4.37
2018-05-15T00:05:24.997Z,4.00
2018-05-15T00:07:51.151Z,4.00
2018-05-15T00:10:17.437Z,4.23
2018-05-15T00:12:43.579Z,3.10
2018-05-15T00:15:09.712Z,4.10
2018-05-15T00:17:35.959Z,3.40
2018-05-15T00:20:02.090Z,3.57
2018-05-15T00:22:28.222Z,4.20
2018-05-15T00:24:54.372Z,4.43
2018-05-15T00:27:20.841Z,4.10
2018-05-15T00:29:46.998Z,3.73
2018-05-15T00:32:13.400Z,3.60
2018-05-15T00:34:39.549Z,4.27
2018-05-15T00:37:05.689Z,4.70
2018-05-15T00:39:31.964Z,4.20
2018-05-15T00:41:58.086Z,3.80
2018-05-15T00:44:24.218Z,3.60
2018-05-15T00:46:50.488Z,3.80
2018-05-15T00:49:16.637Z,4.60
2018-05-15T00:51:42.765Z,4.50
2018-05-15T00:54:08.922Z,3.93
2018-05-15T00:56:35.481Z,4.00
2018-05-15T00:59:01.604Z,3.70
2018-05-15T01:01:27.731Z,4.20
2018-05-15T01:03:53.989Z,4.23
2018-05-15T01:06:20.114Z,5.10
2018-05-15T01:08:46.237Z,4.20
2018-05-15T01:11:12.514Z,4.07
2018-05-15T01:13:38.974Z,4.27
2018-05-15T01:16:05.097Z,4.33
2018-05-15T01:18:31.534Z,3.90
2018-05-15T01:20:57.925Z,4.00
2018-05-15T01:23:24.402Z,3.50
2018-05-15T01:25:50.525Z,4.13
2018-05-15T01:28:16.685Z,4.43
2018-05-15T01:30:42.832Z,4.60
2018-05-15T01:33:08.963Z,4.63
2018-05-15T01:35:35.250Z,4.50
2018-05-15T01:38:01.373Z,4.40
2018-05-15T01:40:27.608Z,3.80
2018-05-15T01:42:54.275Z,4.20
2018-05-15T01:45:20.653Z,4.60
2018-05-15T01:47:46.781Z,4.40
2018-05-15T01:50:12.945Z,4.40
2018-05-15T01:52:39.069Z,4.53
2018-05-15T01:55:05.225Z,4.80
2018-05-15T01:57:31.347Z,5.00
2018-05-15T01:59:57.817Z,4.40
2018-05-15T02:02:23.944Z,4.50
2018-05-15T02:04:50.189Z,4.90
2018-05-15T02:07:16.317Z,4.20
2018-05-15T02:09:42.468Z,4.60
2018-05-15T02:12:08.725Z,4.90
2018-05-15T02:14:34.854Z,4.20
2018-05-15T02:17:00.981Z,4.77
2018-05-15T02:19:27.141Z,4.47
2018-05-15T02:21:53.270Z,4.70
2018-05-15T02:24:19.665Z,5.10
2018-05-15T02:26:45.901Z,4.57
2018-05-15T02:29:12.059Z,5.10
2018-05-15T02:31:38.477Z,4.83
2018-05-15T02:34:05.118Z,4.13
2018-05-15T02:36:31.256Z,4.37
2018-05-15T02:38:57.389Z,4.03
2018-05-15T02:41:23.537Z,4.60
2018-05-15T02:43:49.668Z,4.40
2018-05-15T02:46:15.940Z,3.70
2018-05-15T02:48:42.061Z,5.20
2018-05-15T02:51:08.180Z,4.33
2018-05-15T02:53:34.439Z,4.20
2018-05-15T02:56:00.565Z,5.00
2018-05-15T02:58:26.693Z,4.93
2018-05-15T03:00:52.901Z,4.40
2018-05-15T03:03:19.028Z,4.50
2018-05-15T03:05:45.155Z,4.60
2018-05-15T03:08:11.424Z,4.20
2018-05-15T03:10:37.563Z,4.40
2018-05-15T03:13:03.822Z,4.50
2018-05-15T03:15:29.949Z,4.00
2018-05-15T03:17:56.405Z,4.97
2018-05-15T03:20:22.556Z,4.23
2018-05-15T03:22:48.681Z,4.30
2018-05-15T03:25:14.941Z,4.93
2018-05-15T03:27:41.310Z,5.40
2018-05-15T03:30:07.759Z,4.30
2018-05-15T03:32:34.185Z,3.93
2018-05-15T03:35:00.414Z,4.50
2018-05-15T03:37:26.840Z,4.70
2018-05-15T03:39:53.279Z,4.67
2018-05-15T03:42:19.424Z,5.20
2018-05-15T03:44:45.589Z,4.20
2018-05-15T03:47:11.757Z,5.00
2018-05-15T03:49:37.888Z,6.00
2018-05-15T03:52:04.155Z,4.97
2018-05-15T03:54:30.559Z,5.40
2018-05-15T03:56:57.077Z,5.40
2018-05-15T03:59:23.223Z,4.83
2018-05-15T04:02:01.560Z,5.00
2018-05-15T04:04:40.148Z,5.30
2018-05-15T04:07:18.581Z,5.20
2018-05-15T04:09:44.748Z,5.13
2018-05-15T04:12:10.920Z,6.23
2018-05-15T04:14:37.403Z,4.57
2018-05-15T04:17:03.524Z,4.93
2018-05-15T04:19:29.726Z,5.43
2018-05-15T04:21:56.002Z,4.80
2018-05-15T04:24:22.450Z,5.00
2018-05-15T04:26:48.592Z,5.40
2018-05-15T04:29:14.947Z,4.80
2018-05-15T04:31:41.341Z,5.10
2018-05-15T04:34:07.509Z,5.33
2018-05-15T04:36:33.912Z,5.13
2018-05-15T04:39:00.328Z,5.20
2018-05-15T04:41:26.493Z,5.30
2018-05-15T04:43:52.882Z,4.90
2018-05-15T04:46:18.961Z,5.17
2018-05-15T04:48:45.084Z,6.13
2018-05-15T04:51:11.559Z,5.40
2018-05-15T04:53:37.854Z,5.47
2018-05-15T04:56:04.104Z,5.43
2018-05-15T04:58:30.533Z,5.43
2018-05-15T05:00:56.921Z,5.50
2018-05-15T05:03:23.535Z,4.83
2018-05-15T05:05:49.713Z,5.30
2018-05-15T05:08:15.856Z,6.30
2018-05-15T05:10:42.121Z,5.07
2018-05-15T05:13:08.257Z,5.87
2018-05-15T05:15:34.608Z,5.40
2018-05-15T05:18:01.254Z,5.30
2018-05-15T05:20:28.819Z,5.00
2018-05-15T05:22:54.966Z,5.80
2018-05-15T05:25:21.130Z,5.90
2018-05-15T05:27:47.314Z,6.70
2018-05-15T05:30:13.543Z,6.13
2018-05-15T05:32:39.675Z,6.70
2018-05-15T05:35:05.797Z,5.93
2018-05-15T05:37:32.193Z,5.80
2018-05-15T05:39:58.698Z,5.40
2018-05-15T05:42:24.876Z,5.33
2018-05-15T05:44:51.015Z,5.70
2018-05-15T05:47:17.173Z,5.47
2018-05-15T05:49:43.455Z,6.10
2018-05-15T05:52:09.573Z,5.50
2018-05-15T05:54:35.712Z,4.70
2018-05-15T05:57:01.984Z,5.20
2018-05-15T05:59:28.127Z,5.53
2018-05-15T06:01:54.648Z,5.00
2018-05-15T06:04:20.805Z,4.40
2018-05-15T06:06:46.985Z,4.60
2018-05-15T06:09:14.436Z,4.67
2018-05-15T06:11:40.567Z,4.90
2018-05-15T06:14:06.701Z,6.73
2018-05-15T06:16:33.045Z,5.60
2018-05-15T06:18:59.474Z,7.30
2018-05-15T06:21:25.623Z,7.50
2018-05-15T06:23:51.824Z,7.90
2018-05-15T06:26:17.953Z,7.30
2018-05-15T06:28:44.129Z,7.90
2018-05-15T06:31:10.749Z,7.03
2018-05-15T06:33:36.886Z,7.33
2018-05-15T06:36:03.019Z,8.17
2018-05-15T06:38:29.253Z,7.27
2018-05-15T06:40:55.357Z,6.93
2018-05-15T06:43:21.862Z,6.00
2018-05-15T06:45:48.004Z,7.47
2018-05-15T06:48:14.290Z,8.57
2018-05-15T06:50:40.429Z,6.23
2018-05-15T06:53:06.558Z,6.90
2018-05-15T06:55:32.767Z,6.40
2018-05-15T06:57:58.909Z,6.40
2018-05-15T07:00:25.114Z,7.90
2018-05-15T07:02:51.251Z,6.47
2018-05-15T07:05:17.386Z,8.37
2018-05-15T07:07:43.889Z,5.67
2018-05-15T07:10:09.987Z,6.93
2018-05-15T07:12:36.107Z,6.90
2018-05-15T07:15:02.280Z,6.97
2018-05-15T07:17:28.414Z,7.43
2018-05-15T07:19:54.717Z,8.30
2018-05-15T07:22:20.864Z,7.67
2018-05-15T07:24:47.016Z,7.17
2018-05-15T07:27:13.467Z,6.70
2018-05-15T07:29:39.641Z,7.70
2018-05-15T07:32:05.794Z,6.40
2018-05-15T07:34:31.966Z,6.70
2018-05-15T07:36:58.510Z,8.50
2018-05-15T07:39:24.648Z,6.10
2018-05-15T07:41:50.795Z,6.23
2018-05-15T07:44:16.953Z,8.53
2018-05-15T07:46:43.138Z,7.50
2018-05-15T07:49:09.274Z,6.63
2018-05-15T07:51:35.410Z,7.57
2018-05-15T07:54:01.639Z,8.33
2018-05-15T07:56:27.794Z,6.90
2018-05-15T07:58:53.914Z,7.33
2018-05-15T08:01:20.173Z,6.63
2018-05-15T08:03:46.567Z,6.90
2018-05-15T08:06:12.688Z,6.63
2018-05-15T08:08:39.123Z,8.47
2018-05-15T08:11:05.409Z,7.00
2018-05-15T08:13:31.581Z,8.40
2018-05-15T08:15:57.701Z,6.30
2018-05-15T08:18:23.863Z,6.00
2018-05-15T08:20:50.033Z,7.87
2018-05-15T08:23:16.193Z,7.27
2018-05-15T08:25:42.325Z,7.27
2018-05-15T08:28:09.184Z,6.67
2018-05-15T08:30:35.355Z,6.70
2018-05-15T08:33:01.510Z,8.10
2018-05-15T08:35:27.700Z,6.00
2018-05-15T08:37:53.834Z,7.33
2018-05-15T08:40:19.969Z,6.67
2018-05-15T08:42:46.121Z,6.10
2018-05-15T08:45:12.543Z,5.90
2018-05-15T08:47:38.735Z,6.90
2018-05-15T08:50:05.206Z,6.97
2018-05-15T08:52:31.343Z,7.30
2018-05-15T08:54:57.614Z,6.80
2018-05-15T08:57:23.756Z,7.13
2018-05-15T08:59:50.217Z,7.57
2018-05-15T09:02:16.384Z,6.03
2018-05-15T09:04:42.777Z,7.00
2018-05-15T09:07:08.931Z,6.07
2018-05-15T09:09:35.065Z,6.03
2018-05-15T09:12:01.325Z,6.20
2018-05-15T09:14:27.793Z,6.30
2018-05-15T09:16:53.948Z,5.50
2018-05-15T09:19:20.325Z,5.90
2018-05-15T09:21:46.789Z,7.73
2018-05-15T09:24:12.974Z,6.20
2018-05-15T09:26:39.590Z,6.00
2018-05-15T09:29:05.778Z,6.70
2018-05-15T09:31:31.910Z,6.77
2018-05-15T09:33:58.061Z,5.43
2018-05-15T09:36:24.236Z,6.00
2018-05-15T09:38:50.825Z,6.30
2018-05-15T09:41:16.962Z,5.73
2018-05-15T09:43:58.044Z,5.93
2018-05-15T09:46:24.936Z,5.70
2018-05-15T09:48:51.063Z,6.10
2018-05-15T09:51:17.194Z,5.70
2018-05-15T09:53:43.385Z,4.97
2018-05-15T09:56:09.549Z,5.40
2018-05-15T09:58:35.924Z,5.40
2018-05-15T10:01:02.101Z,5.00
2018-05-15T10:03:28.237Z,5.80
2018-05-15T10:05:54.422Z,5.10
2018-05-15T10:08:20.591Z,4.80
2018-05-15T10:10:46.726Z,5.10
2018-05-15T10:13:12.962Z,4.67
2018-05-15T10:15:39.093Z,4.87
2018-05-15T10:18:05.258Z,4.40
2018-05-15T10:20:31.720Z,4.83
2018-05-15T10:22:58.024Z,5.50
2018-05-15T10:25:26.729Z,5.17
2018-05-15T10:27:53.177Z,5.70
2018-05-15T10:30:19.369Z,5.70
2018-05-15T10:32:45.570Z,5.43
2018-05-15T10:35:11.884Z,5.00
2018-05-15T10:37:38.046Z,4.90
2018-05-15T10:40:04.188Z,4.80
2018-05-15T10:42:30.747Z,5.00
2018-05-15T10:44:56.894Z,5.60
2018-05-15T10:47:23.039Z,4.67
2018-05-15T10:49:49.310Z,5.20
2018-05-15T10:52:15.443Z,5.63
2018-05-15T10:54:41.577Z,5.20
2018-05-15T10:57:07.756Z,5.00
2018-05-15T10:59:33.980Z,4.57
2018-05-15T11:02:00.075Z,4.73
2018-05-15T11:04:26.200Z,4.57
2018-05-15T11:06:52.620Z,4.53
2018-05-15T11:09:18.769Z,4.90
2018-05-15T11:11:44.945Z,4.80
2018-05-15T11:14:11.253Z,5.30
2018-05-15T11:16:37.394Z,5.20
2018-05-15T11:19:16.319Z,4.77
2018-05-15T11:21:54.637Z,5.70
2018-05-15T11:24:33.567Z,4.83
2018-05-15T11:26:59.643Z,5.27
2018-05-15T11:29:25.790Z,5.00
2018-05-15T11:31:51.966Z,4.80
2018-05-15T11:34:18.145Z,3.83
2018-05-15T11:36:44.341Z,5.20
2018-05-15T11:39:10.465Z,4.57
2018-05-15T11:41:36.934Z,4.80
2018-05-15T11:44:03.160Z,4.13
2018-05-15T11:46:29.340Z,4.77
2018-05-15T11:48:56.270Z,3.77
2018-05-15T11:51:22.768Z,4.77
2018-05-15T11:53:48.381Z,4.73
2018-05-15T11:56:14.459Z,4.53
2018-05-15T11:58:40.584Z,4.40
2018-05-15T12:01:06.850Z,3.93
2018-05-15T12:03:32.993Z,4.30
2018-05-15T12:05:59.130Z,4.30
2018-05-15T12:08:25.343Z,5.30
2018-05-15T12:10:51.510Z,5.97
2018-05-15T12:13:17.646Z,3.83
2018-05-15T12:15:44.304Z,3.80
2018-05-15T12:18:10.442Z,4.57
2018-05-15T12:20:36.578Z,5.30
2018-05-15T12:23:02.738Z,4.00
2018-05-15T12:25:28.871Z,3.50
2018-05-15T12:27:55.115Z,3.90
2018-05-15T12:30:21.288Z,4.10
2018-05-15T12:32:47.417Z,4.60
2018-05-15T12:35:13.614Z,4.27
2018-05-15T12:37:39.738Z,4.40
2018-05-15T12:40:05.912Z,4.50
2018-05-15T12:42:32.294Z,4.73
2018-05-15T12:44:58.706Z,4.57
2018-05-15T12:47:24.869Z,4.00
2018-05-15T12:49:51.014Z,4.00
2018-05-15T12:52:17.296Z,5.03
2018-05-15T12:54:43.413Z,4.40
2018-05-15T12:57:09.550Z,4.50
2018-05-15T12:59:35.700Z,3.60
2018-05-15T13:02:01.988Z,3.63
2018-05-15T13:04:28.145Z,4.93
2018-05-15T13:06:54.504Z,4.40
2018-05-15T13:09:21.008Z,3.73
2018-05-15T13:11:47.360Z,4.30
2018-05-15T13:14:13.709Z,4.20
2018-05-15T13:16:39.875Z,4.13
2018-05-15T13:19:06.001Z,4.80
2018-05-15T13:21:32.172Z,3.70
2018-05-15T13:23:58.301Z,4.30
2018-05-15T13:26:25.099Z,4.10
2018-05-15T13:28:51.234Z,5.07
2018-05-15T13:31:17.619Z,4.50
2018-05-15T13:33:44.134Z,4.10
2018-05-15T13:36:10.554Z,4.07
2018-05-15T13:38:36.706Z,3.80
2018-05-15T13:41:02.904Z,3.97
2018-05-15T13:43:29.022Z,4.00
2018-05-15T13:45:55.146Z,4.10
2018-05-15T13:48:21.335Z,4.33
2018-05-15T13:50:47.508Z,4.30
2018-05-15T13:53:13.748Z,4.50
2018-05-15T13:55:39.918Z,4.60
2018-05-15T13:58:06.211Z,4.20
2018-05-15T14:00:32.359Z,4.33
2018-05-15T14:02:58.490Z,4.60
2018-05-15T14:05:24.881Z,4.20
2018-05-15T14:07:51.020Z,4.10
2018-05-15T14:10:17.240Z,5.10
2018-05-15T14:12:43.373Z,4.33
2018-05-15T14:15:09.508Z,3.60
2018-05-15T14:17:35.679Z,4.37
2018-05-15T14:20:01.820Z,3.70
2018-05-15T14:22:28.100Z,4.73
2018-05-15T14:24:54.243Z,3.97
2018-05-15T14:27:20.378Z,4.57
2018-05-15T14:29:46.554Z,3.80
2018-05-15T14:32:13.050Z,4.17
2018-05-15T14:34:39.233Z,4.40
2018-05-15T14:37:05.425Z,3.93
2018-05-15T14:39:31.833Z,4.53
2018-05-15T14:42:10.151Z,4.30
2018-05-15T14:44:36.322Z,3.47
2018-05-15T14:47:02.508Z,4.70
2018-05-15T14:49:28.654Z,4.00
2018-05-15T14:51:54.830Z,3.70
2018-05-15T14:54:20.949Z,4.20
2018-05-15T14:56:47.366Z,3.70
2018-05-15T14:59:13.841Z,3.57
2018-05-15T15:01:40.004Z,4.10
2018-05-15T15:04:06.141Z,4.40
2018-05-15T15:06:32.421Z,3.87
2018-05-15T15:08:58.556Z,4.40
2018-05-15T15:11:24.845Z,3.90
2018-05-15T15:13:51.430Z,4.30
2018-05-15T15:16:17.561Z,4.30
2018-05-15T15:18:43.790Z,4.00
2018-05-15T15:21:09.961Z,3.80
2018-05-15T15:23:36.168Z,4.80
2018-05-15T15:26:02.293Z,3.97
2018-05-15T15:28:28.680Z,3.50
2018-05-15T15:30:55.257Z,4.30
2018-05-15T15:33:21.393Z,3.97
2018-05-15T15:35:47.783Z,3.70
2018-05-15T15:38:13.962Z,5.03
2018-05-15T15:40:40.537Z,4.10
2018-05-15T15:43:06.909Z,4.40
2018-05-15T15:45:33.301Z,4.20
2018-05-15T15:47:59.473Z,3.43
2018-05-15T15:50:26.175Z,3.43
2018-05-15T15:52:52.281Z,4.70
2018-05-15T15:55:18.415Z,4.20
2018-05-15T15:57:44.856Z,4.13
2018-05-15T16:00:11.081Z,4.13
2018-05-15T16:02:37.515Z,4.13
2018-05-15T16:05:03.943Z,4.20
2018-05-15T16:07:30.081Z,4.30
2018-05-15T16:09:56.369Z,4.33
2018-05-15T16:12:22.546Z,4.30
2018-05-15T16:14:48.695Z,3.80
2018-05-15T16:17:15.191Z,4.10
2018-05-15T16:19:41.436Z,4.57
2018-05-15T16:22:15.573Z,4.40
2018-05-15T16:24:43.857Z,4.20
2018-05-15T16:27:10.152Z,4.47
2018-05-15T16:29:36.613Z,4.73
2018-05-15T16:32:02.906Z,4.37
2018-05-15T16:34:29.050Z,4.47
2018-05-15T16:36:55.209Z,5.03
2018-05-15T16:39:21.788Z,4.60
2018-05-15T16:41:48.228Z,4.33
2018-05-15T16:44:14.374Z,4.90
2018-05-15T16:46:40.537Z,4.80
2018-05-15T16:49:06.674Z,4.27
2018-05-15T16:51:32.952Z,4.33
2018-05-15T16:54:01.595Z,5.00
2018-05-15T16:56:27.762Z,4.27
2018-05-15T16:58:54.174Z,4.43
2018-05-15T17:01:20.413Z,4.40
2018-05-15T17:03:46.552Z,4.27
2018-05-15T17:06:12.820Z,4.07
2018-05-15T17:08:39.747Z,4.30
2018-05-15T17:11:05.958Z,4.33
2018-05-15T17:13:32.248Z,3.80
2018-05-15T17:15:58.347Z,4.00
2018-05-15T17:18:24.522Z,3.90
2018-05-15T17:20:50.677Z,4.50
2018-05-15T17:23:17.214Z,3.80
2018-05-15T17:25:43.363Z,3.77
2018-05-15T17:28:09.512Z,3.97
2018-05-15T17:30:35.698Z,4.13
2018-05-15T17:33:01.839Z,3.90
2018-05-15T17:35:28.100Z,4.20
2018-05-15T17:38:17.882Z,3.87
2018-05-15T17:40:44.235Z,3.90
2018-05-15T17:43:10.364Z,3.93
2018-05-15T17:45:36.552Z,4.37
2018-05-15T17:48:03.134Z,3.83
2018-05-15T17:50:29.309Z,4.40
2018-05-15T17:52:55.546Z,4.53
2018-05-15T17:55:21.716Z,4.23
2018-05-15T17:57:47.903Z,3.97
2018-05-15T18:00:14.070Z,3.50
2018-05-15T18:02:40.460Z,4.20
2018-05-15T18:05:06.606Z,3.70
2018-05-15T18:07:32.783Z,3.97
2018-05-15T18:09:58.922Z,3.67
2018-05-15T18:12:25.213Z,4.20
2018-05-15T18:14:51.630Z,3.77
2018-05-15T18:17:17.773Z,3.23
2018-05-15T18:19:44.281Z,3.90
2018-05-15T18:22:10.474Z,3.37
2018-05-15T18:24:36.614Z,3.80
2018-05-15T18:27:02.790Z,3.77
2018-05-15T18:29:28.961Z,3.80
2018-05-15T18:31:55.117Z,3.70
2018-05-15T18:34:21.714Z,3.97
2018-05-15T18:36:47.850Z,3.73
2018-05-15T18:39:14.314Z,3.70
2018-05-15T18:41:40.883Z,4.53
2018-05-15T18:44:07.022Z,4.20
2018-05-15T18:46:33.165Z,3.20
2018-05-15T18:48:59.362Z,3.73
2018-05-15T18:51:25.492Z,3.97
2018-05-15T18:53:51.695Z,4.00
2018-05-15T18:56:17.890Z,4.07
2018-05-15T18:58:44.049Z,4.17
2018-05-15T19:01:10.189Z,4.70
2018-05-15T19:03:36.357Z,4.37
2018-05-15T19:06:02.563Z,4.00
2018-05-15T19:08:28.702Z,4.17
2018-05-15T19:10:55.092Z,3.53
2018-05-15T19:13:21.408Z,4.10
2018-05-15T19:15:47.543Z,3.97
2018-05-15T19:18:14.056Z,4.03
2018-05-15T19:20:40.217Z,4.17
2018-05-15T19:23:06.734Z,3.57
2018-05-15T19:25:33.398Z,3.90
2018-05-15T19:27:59.541Z,4.20
2018-05-15T19:30:26.023Z,3.50
2018-05-15T19:32:58.250Z,4.50
2018-05-15T19:35:29.465Z,4.20
2018-05-15T19:37:55.872Z,4.00
2018-05-15T19:40:22.062Z,4.00
2018-05-15T19:42:48.731Z,4.07
2018-05-15T19:45:14.941Z,3.73
2018-05-15T19:47:41.387Z,3.87
2018-05-15T19:50:07.554Z,3.60
2018-05-15T19:52:33.713Z,3.67
2018-05-15T19:54:59.960Z,3.67
2018-05-15T19:57:26.157Z,4.03
2018-05-15T19:59:52.321Z,4.00
2018-05-15T20:02:18.492Z,4.10
2018-05-15T20:04:44.884Z,4.27
2018-05-15T20:07:11.492Z,3.90
2018-05-15T20:09:37.631Z,3.43
2018-05-15T20:12:03.782Z,3.53
2018-05-15T20:14:29.946Z,3.70
2018-05-15T20:16:56.228Z,3.90
2018-05-15T20:19:22.665Z,3.67
2018-05-15T20:21:48.794Z,3.93
2018-05-15T20:24:15.360Z,3.57
2018-05-15T20:26:41.518Z,3.70
2018-05-15T20:29:07.669Z,4.27
2018-05-15T20:31:33.846Z,3.77
2018-05-15T20:34:00.755Z,3.60
2018-05-15T20:36:26.890Z,4.10
2018-05-15T20:38:53.022Z,3.93
2018-05-15T20:41:19.168Z,3.37
2018-05-15T20:43:45.354Z,4.10
2018-05-15T20:46:11.544Z,3.50
2018-05-15T20:48:37.672Z,4.47
2018-05-15T20:51:03.867Z,5.13
2018-05-15T20:53:30.025Z,4.07
2018-05-15T20:55:56.194Z,3.50
2018-05-15T20:58:22.345Z,4.40
2018-05-15T21:00:48.746Z,6.87
2018-05-15T21:03:14.898Z,4.60
2018-05-15T21:05:41.305Z,4.53
2018-05-15T21:08:07.523Z,4.20
2018-05-15T21:10:33.698Z,4.33
2018-05-15T21:12:59.838Z,4.10
2018-05-15T21:15:25.994Z,5.07
2018-05-15T21:17:52.444Z,4.10
2018-05-15T21:20:18.569Z,3.93
2018-05-15T21:22:44.735Z,3.50
2018-05-15T21:25:10.870Z,4.60
2018-05-15T21:27:37.768Z,3.70
2018-05-15T21:30:03.897Z,4.50
2018-05-15T21:32:30.063Z,3.70
2018-05-15T21:34:56.233Z,3.63
2018-05-15T21:37:22.357Z,4.13
2018-05-15T21:39:48.520Z,4.07
2018-05-15T21:42:14.651Z,3.47
2018-05-15T21:44:40.866Z,3.93
2018-05-15T21:47:07.285Z,3.93
2018-05-15T21:49:33.409Z,3.50
2018-05-15T21:51:59.840Z,3.77
2018-05-15T21:54:25.973Z,3.87
2018-05-15T21:56:52.133Z,3.60
2018-05-15T21:59:18.412Z,3.40
2018-05-15T22:01:44.858Z,3.47
2018-05-15T22:04:10.986Z,4.37
2018-05-15T22:06:37.142Z,4.50
2018-05-15T22:09:04.022Z,3.93
2018-05-15T22:11:29.917Z,3.87
2018-05-15T22:14:08.213Z,4.20
2018-05-15T22:16:46.418Z,3.20
2018-05-15T22:19:24.910Z,3.80
2018-05-15T22:22:03.525Z,3.30
2018-05-15T22:24:29.706Z,4.23
2018-05-15T22:26:55.854Z,4.03
2018-05-15T22:29:21.986Z,4.17
2018-05-15T22:31:48.140Z,3.30
2018-05-15T22:34:14.335Z,3.80
2018-05-15T22:36:40.461Z,3.77
2018-05-15T22:39:06.604Z,4.60
2018-05-15T22:41:32.858Z,4.00
2018-05-15T22:43:59.271Z,3.57
2018-05-15T22:46:25.841Z,3.33
2018-05-15T22:48:51.970Z,3.50
2018-05-15T22:51:18.113Z,3.20
2018-05-15T22:53:44.272Z,3.97
2018-05-15T22:56:10.394Z,3.23
2018-05-15T22:58:36.770Z,3.80
2018-05-15T23:01:03.096Z,4.10
2018-05-15T23:03:29.231Z,4.43
2018-05-15T23:05:55.737Z,3.90
2018-05-15T23:08:21.860Z,3.30
2018-05-15T23:10:47.984Z,3.33
2018-05-15T23:13:14.197Z,3.67
2018-05-15T23:15:40.339Z,4.10
2018-05-15T23:18:06.494Z,3.63
2018-05-15T23:20:32.641Z,3.80
2018-05-15T23:22:58.770Z,3.60
2018-05-15T23:25:25.033Z,4.60
2018-05-15T23:27:51.156Z,3.73
2018-05-15T23:30:17.291Z,3.70
2018-05-15T23:32:43.449Z,3.83
2018-05-15T23:35:09.808Z,4.03
2018-05-15T23:37:35.975Z,4.37
2018-05-15T23:40:02.110Z,4.43
2018-05-15T23:42:28.274Z,4.13
2018-05-15T23:44:54.445Z,4.00
2018-05-15T23:47:20.725Z,4.10
2018-05-15T23:49:47.224Z,4.53
2018-05-15T23:52:13.353Z,4.50
2018-05-15T23:54:39.504Z,4.60
2018-05-15T23:57:05.637Z,3.77
2018-05-15T23:59:32.177Z,3.77
